sensor_id;sensor_type;location;lat;lon;timestamp;P1;durP1;ratioP1;P2;durP2;ratioP2
44764;SDS011;30484;52.382;5.260;2024-03-25T00:02:06;26.63;;;3.70;;
44764;SDS011;30484;52.382;5.260;2024-03-25T00:04:53;39.03;;;4.03;;
44764;SDS011;30484;52.382;5.260;2024-03-25T00:07:19;46.15;;;5.55;;
44764;SDS011;30484;52.382;5.260;2024-03-25T00:09:47;28.98;;;3.97;;
44764;SDS011;30484;52.382;5.260;2024-03-25T00:12:13;41.45;;;3.90;;
44764;SDS011;30484;52.382;5.260;2024-03-25T00:14:42;39.45;;;3.75;;
44764;SDS011;30484;52.382;5.260;2024-03-25T00:17:09;48.30;;;4.35;;
44764;SDS011;30484;52.382;5.260;2024-03-25T00:19:46;34.45;;;3.85;;
44764;SDS011;30484;52.382;5.260;2024-03-25T00:22:26;35.92;;;4.25;;
44764;SDS011;30484;52.382;5.260;2024-03-25T00:24:53;47.00;;;4.72;;
44764;SDS011;30484;52.382;5.260;2024-03-25T00:27:20;43.45;;;4.38;;
44764;SDS011;30484;52.382;5.260;2024-03-25T00:29:49;46.80;;;4.30;;
44764;SDS011;30484;52.382;5.260;2024-03-25T00:32:26;43.47;;;4.10;;
44764;SDS011;30484;52.382;5.260;2024-03-25T00:35:03;38.90;;;4.03;;
44764;SDS011;30484;52.382;5.260;2024-03-25T00:37:51;41.65;;;3.67;;
44764;SDS011;30484;52.382;5.260;2024-03-25T00:40:29;52.97;;;5.07;;
44764;SDS011;30484;52.382;5.260;2024-03-25T00:42:55;38.40;;;4.28;;
44764;SDS011;30484;52.382;5.260;2024-03-25T00:45:24;26.00;;;3.65;;
44764;SDS011;30484;52.382;5.260;2024-03-25T00:47:55;52.95;;;3.65;;
44764;SDS011;30484;52.382;5.260;2024-03-25T00:50:24;36.53;;;3.83;;
44764;SDS011;30484;52.382;5.260;2024-03-25T00:52:52;44.05;;;3.55;;
44764;SDS011;30484;52.382;5.260;2024-03-25T00:55:19;43.80;;;4.03;;
44764;SDS011;30484;52.382;5.260;2024-03-25T00:57:46;41.05;;;4.13;;
44764;SDS011;30484;52.382;5.260;2024-03-25T01:00:14;35.97;;;3.95;;
44764;SDS011;30484;52.382;5.260;2024-03-25T01:02:42;36.67;;;3.83;;
44764;SDS011;30484;52.382;5.260;2024-03-25T01:05:10;47.75;;;3.92;;
44764;SDS011;30484;52.382;5.260;2024-03-25T01:07:37;32.05;;;3.63;;
44764;SDS011;30484;52.382;5.260;2024-03-25T01:10:05;41.22;;;4.03;;
44764;SDS011;30484;52.382;5.260;2024-03-25T01:12:32;45.78;;;4.15;;
44764;SDS011;30484;52.382;5.260;2024-03-25T01:15:00;48.97;;;4.50;;
44764;SDS011;30484;52.382;5.260;2024-03-25T01:17:28;40.05;;;3.97;;
44764;SDS011;30484;52.382;5.260;2024-03-25T01:20:03;31.92;;;3.75;;
44764;SDS011;30484;52.382;5.260;2024-03-25T01:22:34;48.67;;;4.07;;
44764;SDS011;30484;52.382;5.260;2024-03-25T01:25:01;40.50;;;3.80;;
44764;SDS011;30484;52.382;5.260;2024-03-25T01:27:28;44.78;;;3.88;;
44764;SDS011;30484;52.382;5.260;2024-03-25T01:29:55;34.05;;;4.18;;
44764;SDS011;30484;52.382;5.260;2024-03-25T01:32:22;34.63;;;3.70;;
44764;SDS011;30484;52.382;5.260;2024-03-25T01:34:49;46.95;;;4.10;;
44764;SDS011;30484;52.382;5.260;2024-03-25T01:37:18;37.10;;;3.75;;
44764;SDS011;30484;52.382;5.260;2024-03-25T01:39:45;27.75;;;3.60;;
44764;SDS011;30484;52.382;5.260;2024-03-25T01:42:13;41.08;;;4.30;;
44764;SDS011;30484;52.382;5.260;2024-03-25T01:44:39;34.90;;;3.55;;
44764;SDS011;30484;52.382;5.260;2024-03-25T01:47:07;38.30;;;4.35;;
44764;SDS011;30484;52.382;5.260;2024-03-25T01:49:34;25.50;;;3.40;;
44764;SDS011;30484;52.382;5.260;2024-03-25T01:52:01;45.88;;;4.45;;
44764;SDS011;30484;52.382;5.260;2024-03-25T01:54:30;35.00;;;3.90;;
44764;SDS011;30484;52.382;5.260;2024-03-25T01:56:58;35.55;;;3.90;;
44764;SDS011;30484;52.382;5.260;2024-03-25T01:59:25;33.35;;;3.50;;
44764;SDS011;30484;52.382;5.260;2024-03-25T02:01:52;33.28;;;3.75;;
44764;SDS011;30484;52.382;5.260;2024-03-25T02:04:19;36.80;;;4.03;;
44764;SDS011;30484;52.382;5.260;2024-03-25T02:06:46;34.03;;;3.17;;
44764;SDS011;30484;52.382;5.260;2024-03-25T02:09:13;33.38;;;4.43;;
44764;SDS011;30484;52.382;5.260;2024-03-25T02:11:42;32.28;;;4.00;;
44764;SDS011;30484;52.382;5.260;2024-03-25T02:14:09;38.47;;;4.05;;
44764;SDS011;30484;52.382;5.260;2024-03-25T02:16:37;35.13;;;4.53;;
44764;SDS011;30484;52.382;5.260;2024-03-25T02:19:03;35.75;;;3.72;;
44764;SDS011;30484;52.382;5.260;2024-03-25T02:21:31;25.10;;;3.08;;
44764;SDS011;30484;52.382;5.260;2024-03-25T02:23:57;35.63;;;3.97;;
44764;SDS011;30484;52.382;5.260;2024-03-25T02:26:28;29.35;;;3.10;;
44764;SDS011;30484;52.382;5.260;2024-03-25T02:28:54;29.88;;;4.20;;
44764;SDS011;30484;52.382;5.260;2024-03-25T02:31:22;27.70;;;3.60;;
44764;SDS011;30484;52.382;5.260;2024-03-25T02:33:49;43.08;;;3.65;;
44764;SDS011;30484;52.382;5.260;2024-03-25T02:36:16;33.67;;;3.83;;
44764;SDS011;30484;52.382;5.260;2024-03-25T02:38:43;33.05;;;4.00;;
44764;SDS011;30484;52.382;5.260;2024-03-25T02:41:10;35.33;;;3.58;;
44764;SDS011;30484;52.382;5.260;2024-03-25T02:43:38;34.78;;;3.83;;
44764;SDS011;30484;52.382;5.260;2024-03-25T02:46:06;29.15;;;3.75;;
44764;SDS011;30484;52.382;5.260;2024-03-25T02:48:32;34.92;;;4.05;;
44764;SDS011;30484;52.382;5.260;2024-03-25T02:51:00;35.80;;;4.00;;
44764;SDS011;30484;52.382;5.260;2024-03-25T02:53:26;25.30;;;3.75;;
44764;SDS011;30484;52.382;5.260;2024-03-25T02:55:54;43.83;;;4.22;;
44764;SDS011;30484;52.382;5.260;2024-03-25T02:58:21;25.70;;;3.60;;
44764;SDS011;30484;52.382;5.260;2024-03-25T03:00:50;34.58;;;4.35;;
44764;SDS011;30484;52.382;5.260;2024-03-25T03:03:16;35.78;;;4.05;;
44764;SDS011;30484;52.382;5.260;2024-03-25T03:05:44;29.75;;;3.58;;
44764;SDS011;30484;52.382;5.260;2024-03-25T03:08:10;28.85;;;4.38;;
44764;SDS011;30484;52.382;5.260;2024-03-25T03:10:38;30.13;;;3.78;;
44764;SDS011;30484;52.382;5.260;2024-03-25T03:13:04;23.83;;;3.67;;
44764;SDS011;30484;52.382;5.260;2024-03-25T03:15:32;31.73;;;4.13;;
44764;SDS011;30484;52.382;5.260;2024-03-25T03:18:00;26.52;;;3.33;;
44764;SDS011;30484;52.382;5.260;2024-03-25T03:20:28;31.13;;;3.47;;
44764;SDS011;30484;52.382;5.260;2024-03-25T03:22:59;36.50;;;3.88;;
44764;SDS011;30484;52.382;5.260;2024-03-25T03:25:27;22.67;;;3.38;;
44764;SDS011;30484;52.382;5.260;2024-03-25T03:27:55;34.55;;;3.30;;
44764;SDS011;30484;52.382;5.260;2024-03-25T03:30:23;31.77;;;3.85;;
44764;SDS011;30484;52.382;5.260;2024-03-25T03:32:49;20.52;;;3.67;;
44764;SDS011;30484;52.382;5.260;2024-03-25T03:35:19;28.17;;;3.05;;
44764;SDS011;30484;52.382;5.260;2024-03-25T03:37:45;28.77;;;3.83;;
44764;SDS011;30484;52.382;5.260;2024-03-25T03:40:13;31.23;;;4.10;;
44764;SDS011;30484;52.382;5.260;2024-03-25T03:42:40;23.85;;;3.13;;
44764;SDS011;30484;52.382;5.260;2024-03-25T03:45:07;29.15;;;3.05;;
44764;SDS011;30484;52.382;5.260;2024-03-25T03:47:34;24.00;;;3.80;;
44764;SDS011;30484;52.382;5.260;2024-03-25T03:50:02;31.00;;;4.65;;
44764;SDS011;30484;52.382;5.260;2024-03-25T03:52:31;30.63;;;3.92;;
44764;SDS011;30484;52.382;5.260;2024-03-25T03:54:58;29.13;;;3.45;;
44764;SDS011;30484;52.382;5.260;2024-03-25T03:57:25;22.85;;;3.45;;
44764;SDS011;30484;52.382;5.260;2024-03-25T03:59:53;38.00;;;4.53;;
44764;SDS011;30484;52.382;5.260;2024-03-25T04:02:20;35.88;;;3.47;;
44764;SDS011;30484;52.382;5.260;2024-03-25T04:04:48;38.28;;;3.22;;
44764;SDS011;30484;52.382;5.260;2024-03-25T04:07:17;25.17;;;3.10;;
44764;SDS011;30484;52.382;5.260;2024-03-25T04:09:46;30.27;;;3.50;;
44764;SDS011;30484;52.382;5.260;2024-03-25T04:12:13;26.58;;;3.83;;
44764;SDS011;30484;52.382;5.260;2024-03-25T04:14:41;34.83;;;3.38;;
44764;SDS011;30484;52.382;5.260;2024-03-25T04:17:08;40.75;;;3.90;;
44764;SDS011;30484;52.382;5.260;2024-03-25T04:19:37;24.35;;;2.83;;
44764;SDS011;30484;52.382;5.260;2024-03-25T04:22:04;31.00;;;3.65;;
44764;SDS011;30484;52.382;5.260;2024-03-25T04:24:32;30.10;;;3.35;;
44764;SDS011;30484;52.382;5.260;2024-03-25T04:27:01;31.33;;;3.63;;
44764;SDS011;30484;52.382;5.260;2024-03-25T04:29:29;25.10;;;3.17;;
44764;SDS011;30484;52.382;5.260;2024-03-25T04:31:55;25.13;;;3.08;;
44764;SDS011;30484;52.382;5.260;2024-03-25T04:34:23;22.25;;;3.60;;
44764;SDS011;30484;52.382;5.260;2024-03-25T04:36:49;29.33;;;3.67;;
44764;SDS011;30484;52.382;5.260;2024-03-25T04:39:18;20.73;;;3.22;;
44764;SDS011;30484;52.382;5.260;2024-03-25T04:41:45;37.92;;;3.35;;
44764;SDS011;30484;52.382;5.260;2024-03-25T04:44:13;29.80;;;3.50;;
44764;SDS011;30484;52.382;5.260;2024-03-25T04:46:40;34.35;;;4.65;;
44764;SDS011;30484;52.382;5.260;2024-03-25T04:49:06;32.35;;;4.00;;
44764;SDS011;30484;52.382;5.260;2024-03-25T04:51:33;22.98;;;3.55;;
44764;SDS011;30484;52.382;5.260;2024-03-25T04:53:59;24.35;;;3.13;;
44764;SDS011;30484;52.382;5.260;2024-03-25T04:56:26;29.52;;;3.70;;
44764;SDS011;30484;52.382;5.260;2024-03-25T04:58:53;35.78;;;3.40;;
44764;SDS011;30484;52.382;5.260;2024-03-25T05:01:21;24.65;;;3.72;;
44764;SDS011;30484;52.382;5.260;2024-03-25T05:03:48;38.92;;;4.18;;
44764;SDS011;30484;52.382;5.260;2024-03-25T05:06:14;28.58;;;3.88;;
44764;SDS011;30484;52.382;5.260;2024-03-25T05:08:41;24.17;;;3.67;;
44764;SDS011;30484;52.382;5.260;2024-03-25T05:11:07;33.65;;;4.43;;
44764;SDS011;30484;52.382;5.260;2024-03-25T05:13:34;25.23;;;4.28;;
44764;SDS011;30484;52.382;5.260;2024-03-25T05:16:00;41.60;;;4.85;;
44764;SDS011;30484;52.382;5.260;2024-03-25T05:18:28;43.05;;;5.03;;
44764;SDS011;30484;52.382;5.260;2024-03-25T05:20:55;27.30;;;4.07;;
44764;SDS011;30484;52.382;5.260;2024-03-25T05:23:21;30.23;;;4.40;;
44764;SDS011;30484;52.382;5.260;2024-03-25T05:25:48;38.05;;;4.40;;
44764;SDS011;30484;52.382;5.260;2024-03-25T05:28:14;39.60;;;4.53;;
44764;SDS011;30484;52.382;5.260;2024-03-25T05:30:41;32.05;;;3.83;;
44764;SDS011;30484;52.382;5.260;2024-03-25T05:33:07;41.83;;;5.30;;
44764;SDS011;30484;52.382;5.260;2024-03-25T05:35:36;33.38;;;3.95;;
44764;SDS011;30484;52.382;5.260;2024-03-25T05:38:02;44.33;;;4.32;;
44764;SDS011;30484;52.382;5.260;2024-03-25T05:40:29;35.25;;;4.28;;
44764;SDS011;30484;52.382;5.260;2024-03-25T05:42:56;41.25;;;4.80;;
44764;SDS011;30484;52.382;5.260;2024-03-25T05:45:23;39.70;;;4.38;;
44764;SDS011;30484;52.382;5.260;2024-03-25T05:47:50;54.75;;;5.18;;
44764;SDS011;30484;52.382;5.260;2024-03-25T05:50:17;35.90;;;5.10;;
44764;SDS011;30484;52.382;5.260;2024-03-25T05:52:45;40.03;;;4.57;;
44764;SDS011;30484;52.382;5.260;2024-03-25T05:55:12;36.92;;;5.20;;
44764;SDS011;30484;52.382;5.260;2024-03-25T05:57:39;40.65;;;4.63;;
44764;SDS011;30484;52.382;5.260;2024-03-25T06:00:06;24.77;;;5.03;;
44764;SDS011;30484;52.382;5.260;2024-03-25T06:02:34;50.05;;;4.93;;
44764;SDS011;30484;52.382;5.260;2024-03-25T06:05:01;33.25;;;4.95;;
44764;SDS011;30484;52.382;5.260;2024-03-25T06:07:28;45.67;;;5.28;;
44764;SDS011;30484;52.382;5.260;2024-03-25T06:09:56;28.73;;;4.68;;
44764;SDS011;30484;52.382;5.260;2024-03-25T06:12:23;45.35;;;5.38;;
44764;SDS011;30484;52.382;5.260;2024-03-25T06:14:49;37.05;;;5.53;;
44764;SDS011;30484;52.382;5.260;2024-03-25T06:17:16;37.45;;;5.43;;
44764;SDS011;30484;52.382;5.260;2024-03-25T06:19:42;44.40;;;4.50;;
44764;SDS011;30484;52.382;5.260;2024-03-25T06:22:09;51.13;;;5.93;;
44764;SDS011;30484;52.382;5.260;2024-03-25T06:24:36;46.83;;;6.07;;
44764;SDS011;30484;52.382;5.260;2024-03-25T06:27:04;55.22;;;5.70;;
44764;SDS011;30484;52.382;5.260;2024-03-25T06:29:31;40.75;;;5.43;;
44764;SDS011;30484;52.382;5.260;2024-03-25T06:31:57;43.95;;;7.45;;
44764;SDS011;30484;52.382;5.260;2024-03-25T06:34:42;35.90;;;5.63;;
44764;SDS011;30484;52.382;5.260;2024-03-25T06:37:09;46.90;;;6.20;;
44764;SDS011;30484;52.382;5.260;2024-03-25T06:39:36;52.88;;;5.72;;
44764;SDS011;30484;52.382;5.260;2024-03-25T06:42:04;52.90;;;5.70;;
44764;SDS011;30484;52.382;5.260;2024-03-25T06:44:31;31.17;;;4.95;;
44764;SDS011;30484;52.382;5.260;2024-03-25T06:46:58;39.13;;;6.07;;
44764;SDS011;30484;52.382;5.260;2024-03-25T06:49:24;40.67;;;5.60;;
44764;SDS011;30484;52.382;5.260;2024-03-25T06:51:51;41.33;;;5.60;;
44764;SDS011;30484;52.382;5.260;2024-03-25T06:54:17;48.92;;;6.20;;
44764;SDS011;30484;52.382;5.260;2024-03-25T06:56:44;54.38;;;6.60;;
44764;SDS011;30484;52.382;5.260;2024-03-25T06:59:12;40.20;;;5.70;;
44764;SDS011;30484;52.382;5.260;2024-03-25T07:01:39;36.53;;;6.55;;
44764;SDS011;30484;52.382;5.260;2024-03-25T07:04:06;43.28;;;6.57;;
44764;SDS011;30484;52.382;5.260;2024-03-25T07:06:32;54.92;;;7.93;;
44764;SDS011;30484;52.382;5.260;2024-03-25T07:08:59;51.20;;;7.85;;
44764;SDS011;30484;52.382;5.260;2024-03-25T07:11:26;57.88;;;8.00;;
44764;SDS011;30484;52.382;5.260;2024-03-25T07:13:54;38.63;;;6.75;;
44764;SDS011;30484;52.382;5.260;2024-03-25T07:16:22;38.05;;;7.53;;
44764;SDS011;30484;52.382;5.260;2024-03-25T07:18:48;37.88;;;7.90;;
44764;SDS011;30484;52.382;5.260;2024-03-25T07:21:15;37.47;;;7.60;;
44764;SDS011;30484;52.382;5.260;2024-03-25T07:23:41;41.25;;;9.05;;
44764;SDS011;30484;52.382;5.260;2024-03-25T07:26:08;35.03;;;7.15;;
44764;SDS011;30484;52.382;5.260;2024-03-25T07:28:34;35.05;;;6.55;;
44764;SDS011;30484;52.382;5.260;2024-03-25T07:31:01;36.30;;;6.50;;
44764;SDS011;30484;52.382;5.260;2024-03-25T07:33:29;28.33;;;5.85;;
44764;SDS011;30484;52.382;5.260;2024-03-25T07:35:56;31.90;;;5.70;;
44764;SDS011;30484;52.382;5.260;2024-03-25T07:38:23;27.30;;;5.28;;
44764;SDS011;30484;52.382;5.260;2024-03-25T07:40:49;20.60;;;4.97;;
44764;SDS011;30484;52.382;5.260;2024-03-25T07:43:16;23.48;;;4.70;;
44764;SDS011;30484;52.382;5.260;2024-03-25T07:45:43;22.35;;;5.10;;
44764;SDS011;30484;52.382;5.260;2024-03-25T07:48:09;28.42;;;4.97;;
44764;SDS011;30484;52.382;5.260;2024-03-25T07:50:37;29.95;;;5.20;;
44764;SDS011;30484;52.382;5.260;2024-03-25T07:53:04;24.85;;;4.80;;
44764;SDS011;30484;52.382;5.260;2024-03-25T07:55:30;26.42;;;4.63;;
44764;SDS011;30484;52.382;5.260;2024-03-25T07:57:57;26.15;;;4.55;;
44764;SDS011;30484;52.382;5.260;2024-03-25T08:00:24;27.40;;;4.35;;
44764;SDS011;30484;52.382;5.260;2024-03-25T08:02:50;17.52;;;4.72;;
44764;SDS011;30484;52.382;5.260;2024-03-25T08:05:17;28.35;;;4.78;;
44764;SDS011;30484;52.382;5.260;2024-03-25T08:07:45;25.98;;;4.68;;
44764;SDS011;30484;52.382;5.260;2024-03-25T08:10:11;17.40;;;4.10;;
44764;SDS011;30484;52.382;5.260;2024-03-25T08:12:38;23.45;;;4.32;;
44764;SDS011;30484;52.382;5.260;2024-03-25T08:15:05;24.25;;;3.80;;
44764;SDS011;30484;52.382;5.260;2024-03-25T08:17:34;21.25;;;3.60;;
44764;SDS011;30484;52.382;5.260;2024-03-25T08:20:01;22.80;;;3.92;;
44764;SDS011;30484;52.382;5.260;2024-03-25T08:22:28;15.95;;;3.00;;
44764;SDS011;30484;52.382;5.260;2024-03-25T08:24:57;21.98;;;3.80;;
44764;SDS011;30484;52.382;5.260;2024-03-25T08:27:24;23.38;;;3.30;;
44764;SDS011;30484;52.382;5.260;2024-03-25T08:29:50;22.70;;;3.92;;
44764;SDS011;30484;52.382;5.260;2024-03-25T08:32:17;28.15;;;3.33;;
44764;SDS011;30484;52.382;5.260;2024-03-25T08:34:44;25.83;;;3.47;;
44764;SDS011;30484;52.382;5.260;2024-03-25T08:37:14;18.67;;;3.17;;
44764;SDS011;30484;52.382;5.260;2024-03-25T08:39:40;23.02;;;2.60;;
44764;SDS011;30484;52.382;5.260;2024-03-25T08:42:08;18.67;;;2.67;;
44764;SDS011;30484;52.382;5.260;2024-03-25T08:44:35;18.50;;;2.80;;
44764;SDS011;30484;52.382;5.260;2024-03-25T08:47:01;14.73;;;2.67;;
44764;SDS011;30484;52.382;5.260;2024-03-25T08:49:28;16.83;;;3.15;;
44764;SDS011;30484;52.382;5.260;2024-03-25T08:51:55;13.90;;;2.42;;
44764;SDS011;30484;52.382;5.260;2024-03-25T08:54:22;18.33;;;2.65;;
44764;SDS011;30484;52.382;5.260;2024-03-25T08:56:48;22.00;;;3.40;;
44764;SDS011;30484;52.382;5.260;2024-03-25T08:59:16;21.17;;;2.78;;
44764;SDS011;30484;52.382;5.260;2024-03-25T09:01:43;14.80;;;2.70;;
44764;SDS011;30484;52.382;5.260;2024-03-25T09:04:10;13.32;;;2.20;;
44764;SDS011;30484;52.382;5.260;2024-03-25T09:06:37;13.20;;;2.72;;
44764;SDS011;30484;52.382;5.260;2024-03-25T09:09:04;18.52;;;2.65;;
44764;SDS011;30484;52.382;5.260;2024-03-25T09:12:04;18.15;;;2.47;;
44764;SDS011;30484;52.382;5.260;2024-03-25T09:14:33;18.92;;;2.85;;
44764;SDS011;30484;52.382;5.260;2024-03-25T09:17:00;18.10;;;2.70;;
44764;SDS011;30484;52.382;5.260;2024-03-25T09:19:26;19.13;;;3.03;;
44764;SDS011;30484;52.382;5.260;2024-03-25T09:21:53;14.00;;;2.20;;
44764;SDS011;30484;52.382;5.260;2024-03-25T09:24:20;13.50;;;2.28;;
44764;SDS011;30484;52.382;5.260;2024-03-25T09:26:49;15.73;;;2.38;;
44764;SDS011;30484;52.382;5.260;2024-03-25T09:29:16;19.20;;;2.97;;
44764;SDS011;30484;52.382;5.260;2024-03-25T09:31:44;22.08;;;3.05;;
44764;SDS011;30484;52.382;5.260;2024-03-25T09:34:11;20.40;;;2.80;;
44764;SDS011;30484;52.382;5.260;2024-03-25T09:36:37;19.67;;;2.63;;
44764;SDS011;30484;52.382;5.260;2024-03-25T09:39:04;13.73;;;2.22;;
44764;SDS011;30484;52.382;5.260;2024-03-25T09:41:31;15.85;;;2.30;;
44764;SDS011;30484;52.382;5.260;2024-03-25T09:43:59;14.63;;;2.40;;
44764;SDS011;30484;52.382;5.260;2024-03-25T09:46:25;18.00;;;2.28;;
44764;SDS011;30484;52.382;5.260;2024-03-25T09:48:55;14.45;;;2.75;;
44764;SDS011;30484;52.382;5.260;2024-03-25T09:51:22;15.55;;;2.28;;
44764;SDS011;30484;52.382;5.260;2024-03-25T09:53:48;13.23;;;2.13;;
44764;SDS011;30484;52.382;5.260;2024-03-25T09:56:15;10.90;;;2.25;;
44764;SDS011;30484;52.382;5.260;2024-03-25T09:58:42;11.77;;;2.28;;
44764;SDS011;30484;52.382;5.260;2024-03-25T10:01:10;14.60;;;2.70;;
44764;SDS011;30484;52.382;5.260;2024-03-25T10:03:37;15.18;;;2.20;;
44764;SDS011;30484;52.382;5.260;2024-03-25T10:06:05;12.50;;;2.30;;
44764;SDS011;30484;52.382;5.260;2024-03-25T10:08:31;17.80;;;2.53;;
44764;SDS011;30484;52.382;5.260;2024-03-25T10:10:58;14.45;;;2.83;;
44764;SDS011;30484;52.382;5.260;2024-03-25T10:13:26;17.33;;;2.72;;
44764;SDS011;30484;52.382;5.260;2024-03-25T10:15:54;19.23;;;2.97;;
44764;SDS011;30484;52.382;5.260;2024-03-25T10:18:22;24.13;;;2.65;;
44764;SDS011;30484;52.382;5.260;2024-03-25T10:20:49;16.77;;;2.67;;
44764;SDS011;30484;52.382;5.260;2024-03-25T10:23:21;19.30;;;2.72;;
44764;SDS011;30484;52.382;5.260;2024-03-25T10:25:51;17.63;;;3.60;;
44764;SDS011;30484;52.382;5.260;2024-03-25T10:28:19;13.18;;;2.80;;
44764;SDS011;30484;52.382;5.260;2024-03-25T10:30:46;17.20;;;2.85;;
44764;SDS011;30484;52.382;5.260;2024-03-25T10:33:13;13.05;;;2.47;;
44764;SDS011;30484;52.382;5.260;2024-03-25T10:35:40;13.25;;;2.58;;
44764;SDS011;30484;52.382;5.260;2024-03-25T10:38:07;19.25;;;2.40;;
44764;SDS011;30484;52.382;5.260;2024-03-25T10:40:38;20.40;;;3.35;;
44764;SDS011;30484;52.382;5.260;2024-03-25T10:43:06;18.63;;;3.20;;
44764;SDS011;30484;52.382;5.260;2024-03-25T10:45:34;18.35;;;3.05;;
44764;SDS011;30484;52.382;5.260;2024-03-25T10:48:02;15.82;;;2.83;;
44764;SDS011;30484;52.382;5.260;2024-03-25T10:50:33;14.40;;;2.28;;
44764;SDS011;30484;52.382;5.260;2024-03-25T10:53:01;17.05;;;2.75;;
44764;SDS011;30484;52.382;5.260;2024-03-25T10:55:28;16.23;;;2.90;;
44764;SDS011;30484;52.382;5.260;2024-03-25T10:57:57;20.55;;;3.30;;
44764;SDS011;30484;52.382;5.260;2024-03-25T11:00:24;13.30;;;2.47;;
44764;SDS011;30484;52.382;5.260;2024-03-25T11:02:51;19.50;;;2.67;;
44764;SDS011;30484;52.382;5.260;2024-03-25T11:05:18;20.48;;;2.95;;
44764;SDS011;30484;52.382;5.260;2024-03-25T11:07:45;10.38;;;2.50;;
44764;SDS011;30484;52.382;5.260;2024-03-25T11:10:12;16.80;;;2.83;;
44764;SDS011;30484;52.382;5.260;2024-03-25T11:12:40;18.88;;;3.55;;
44764;SDS011;30484;52.382;5.260;2024-03-25T11:15:09;17.52;;;3.03;;
44764;SDS011;30484;52.382;5.260;2024-03-25T11:17:36;15.13;;;3.20;;
44764;SDS011;30484;52.382;5.260;2024-03-25T11:20:07;14.13;;;2.53;;
44764;SDS011;30484;52.382;5.260;2024-03-25T11:22:47;15.23;;;2.78;;
44764;SDS011;30484;52.382;5.260;2024-03-25T11:25:14;14.90;;;2.53;;
44764;SDS011;30484;52.382;5.260;2024-03-25T11:27:42;17.40;;;3.00;;
44764;SDS011;30484;52.382;5.260;2024-03-25T11:30:11;12.38;;;2.53;;
44764;SDS011;30484;52.382;5.260;2024-03-25T11:32:45;16.55;;;2.72;;
44764;SDS011;30484;52.382;5.260;2024-03-25T11:35:12;12.05;;;2.45;;
44764;SDS011;30484;52.382;5.260;2024-03-25T11:37:40;11.02;;;2.20;;
44764;SDS011;30484;52.382;5.260;2024-03-25T11:40:07;12.02;;;2.60;;
44764;SDS011;30484;52.382;5.260;2024-03-25T11:42:35;11.75;;;2.35;;
44764;SDS011;30484;52.382;5.260;2024-03-25T11:45:04;13.10;;;2.80;;
44764;SDS011;30484;52.382;5.260;2024-03-25T11:47:32;12.88;;;2.85;;
44764;SDS011;30484;52.382;5.260;2024-03-25T11:49:59;13.73;;;2.42;;
44764;SDS011;30484;52.382;5.260;2024-03-25T11:52:29;12.13;;;2.50;;
44764;SDS011;30484;52.382;5.260;2024-03-25T11:54:57;14.23;;;2.65;;
44764;SDS011;30484;52.382;5.260;2024-03-25T11:57:24;11.52;;;2.33;;
44764;SDS011;30484;52.382;5.260;2024-03-25T11:59:51;14.55;;;2.78;;
44764;SDS011;30484;52.382;5.260;2024-03-25T12:02:18;16.65;;;2.58;;
44764;SDS011;30484;52.382;5.260;2024-03-25T12:04:47;18.83;;;2.95;;
44764;SDS011;30484;52.382;5.260;2024-03-25T12:07:14;17.77;;;2.72;;
44764;SDS011;30484;52.382;5.260;2024-03-25T12:09:41;22.17;;;3.30;;
44764;SDS011;30484;52.382;5.260;2024-03-25T12:12:27;12.65;;;2.42;;
44764;SDS011;30484;52.382;5.260;2024-03-25T12:14:53;11.02;;;2.60;;
44764;SDS011;30484;52.382;5.260;2024-03-25T12:17:20;13.20;;;2.72;;
44764;SDS011;30484;52.382;5.260;2024-03-25T12:19:59;12.10;;;2.65;;
44764;SDS011;30484;52.382;5.260;2024-03-25T12:22:30;12.10;;;2.58;;
44764;SDS011;30484;52.382;5.260;2024-03-25T12:24:57;11.27;;;2.58;;
44764;SDS011;30484;52.382;5.260;2024-03-25T12:27:27;13.50;;;2.40;;
44764;SDS011;30484;52.382;5.260;2024-03-25T12:30:00;11.88;;;2.38;;
44764;SDS011;30484;52.382;5.260;2024-03-25T12:32:31;15.10;;;2.42;;
44764;SDS011;30484;52.382;5.260;2024-03-25T12:35:03;11.27;;;2.40;;
44764;SDS011;30484;52.382;5.260;2024-03-25T12:37:33;14.27;;;2.40;;
44764;SDS011;30484;52.382;5.260;2024-03-25T12:40:02;14.13;;;2.60;;
44764;SDS011;30484;52.382;5.260;2024-03-25T12:42:31;13.88;;;2.65;;
44764;SDS011;30484;52.382;5.260;2024-03-25T12:44:58;14.02;;;2.80;;
44764;SDS011;30484;52.382;5.260;2024-03-25T12:47:25;14.25;;;2.58;;
44764;SDS011;30484;52.382;5.260;2024-03-25T12:49:51;11.75;;;2.50;;
44764;SDS011;30484;52.382;5.260;2024-03-25T12:52:19;12.20;;;2.63;;
44764;SDS011;30484;52.382;5.260;2024-03-25T12:54:46;9.57;;;2.47;;
44764;SDS011;30484;52.382;5.260;2024-03-25T12:57:13;13.07;;;2.40;;
44764;SDS011;30484;52.382;5.260;2024-03-25T12:59:40;15.57;;;2.80;;
44764;SDS011;30484;52.382;5.260;2024-03-25T13:02:08;13.65;;;2.92;;
44764;SDS011;30484;52.382;5.260;2024-03-25T13:04:37;13.55;;;2.72;;
44764;SDS011;30484;52.382;5.260;2024-03-25T13:07:04;13.93;;;2.33;;
44764;SDS011;30484;52.382;5.260;2024-03-25T13:09:32;11.98;;;2.53;;
44764;SDS011;30484;52.382;5.260;2024-03-25T13:11:59;18.60;;;2.53;;
44764;SDS011;30484;52.382;5.260;2024-03-25T13:14:25;8.10;;;2.45;;
44764;SDS011;30484;52.382;5.260;2024-03-25T13:16:52;10.27;;;2.50;;
44764;SDS011;30484;52.382;5.260;2024-03-25T13:19:18;10.68;;;2.33;;
44764;SDS011;30484;52.382;5.260;2024-03-25T13:21:45;10.73;;;2.25;;
44764;SDS011;30484;52.382;5.260;2024-03-25T13:24:11;10.60;;;2.55;;
44764;SDS011;30484;52.382;5.260;2024-03-25T13:26:39;10.75;;;2.63;;
44764;SDS011;30484;52.382;5.260;2024-03-25T13:29:06;11.95;;;2.63;;
44764;SDS011;30484;52.382;5.260;2024-03-25T13:31:32;16.63;;;2.88;;
44764;SDS011;30484;52.382;5.260;2024-03-25T13:33:59;12.07;;;2.55;;
44764;SDS011;30484;52.382;5.260;2024-03-25T13:36:26;11.10;;;2.33;;
44764;SDS011;30484;52.382;5.260;2024-03-25T13:38:52;11.48;;;2.55;;
44764;SDS011;30484;52.382;5.260;2024-03-25T13:41:19;11.23;;;2.38;;
44764;SDS011;30484;52.382;5.260;2024-03-25T13:43:48;11.73;;;2.40;;
44764;SDS011;30484;52.382;5.260;2024-03-25T13:46:14;6.28;;;2.35;;
44764;SDS011;30484;52.382;5.260;2024-03-25T13:48:41;9.52;;;2.53;;
44764;SDS011;30484;52.382;5.260;2024-03-25T13:51:08;12.48;;;2.53;;
44764;SDS011;30484;52.382;5.260;2024-03-25T13:53:35;9.75;;;2.55;;
44764;SDS011;30484;52.382;5.260;2024-03-25T13:56:02;11.52;;;2.50;;
44764;SDS011;30484;52.382;5.260;2024-03-25T13:58:29;9.02;;;2.50;;
44764;SDS011;30484;52.382;5.260;2024-03-25T14:00:57;15.65;;;3.05;;
44764;SDS011;30484;52.382;5.260;2024-03-25T14:03:24;11.13;;;2.42;;
44764;SDS011;30484;52.382;5.260;2024-03-25T14:05:51;8.80;;;2.42;;
44764;SDS011;30484;52.382;5.260;2024-03-25T14:08:18;14.32;;;3.25;;
44764;SDS011;30484;52.382;5.260;2024-03-25T14:10:56;13.27;;;2.78;;
44764;SDS011;30484;52.382;5.260;2024-03-25T14:13:24;14.43;;;2.83;;
44764;SDS011;30484;52.382;5.260;2024-03-25T14:15:51;11.65;;;3.10;;
44764;SDS011;30484;52.382;5.260;2024-03-25T14:18:19;13.15;;;3.08;;
44764;SDS011;30484;52.382;5.260;2024-03-25T14:20:45;15.07;;;3.13;;
44764;SDS011;30484;52.382;5.260;2024-03-25T14:23:12;10.65;;;3.10;;
44764;SDS011;30484;52.382;5.260;2024-03-25T14:25:39;16.45;;;3.33;;
44764;SDS011;30484;52.382;5.260;2024-03-25T14:28:07;10.70;;;2.95;;
44764;SDS011;30484;52.382;5.260;2024-03-25T14:30:33;11.77;;;3.25;;
44764;SDS011;30484;52.382;5.260;2024-03-25T14:33:01;10.50;;;3.03;;
44764;SDS011;30484;52.382;5.260;2024-03-25T14:35:29;14.52;;;3.38;;
44764;SDS011;30484;52.382;5.260;2024-03-25T14:37:56;9.70;;;3.42;;
44764;SDS011;30484;52.382;5.260;2024-03-25T14:40:23;15.57;;;3.75;;